createdAt,value
2022-08-17T00:00:52.048Z,101016.19
2022-08-17T00:03:23.486Z,101020.34
2022-08-17T00:05:56.771Z,101020.34
2022-08-17T00:08:31.240Z,101017.22
2022-08-17T00:11:01.164Z,101016.38
2022-08-17T00:13:35.268Z,101011.22
2022-08-17T00:16:09.471Z,101012.19
2022-08-17T00:19:00.382Z,101003.06
2022-08-17T00:21:29.438Z,101003.59
2022-08-17T00:24:18.754Z,101005.88
2022-08-17T00:26:48.124Z,100992.91
2022-08-17T00:29:20.024Z,100988.19
2022-08-17T00:31:50.388Z,100992.63
2022-08-17T00:34:19.924Z,100986.66
2022-08-17T00:36:49.009Z,100987.41
2022-08-17T00:39:18.105Z,100980.31
2022-08-17T00:41:47.749Z,100981.94
2022-08-17T00:44:17.273Z,100987.41
2022-08-17T00:46:48.691Z,100984.03
2022-08-17T00:49:20.618Z,100982.53
2022-08-17T00:52:01.805Z,100979.66
2022-08-17T00:54:41.664Z,100980.97
2022-08-17T00:57:18.981Z,100975.72
2022-08-17T01:00:02.405Z,100976.06
2022-08-17T01:02:41.979Z,100975.53
2022-08-17T01:05:25.938Z,100977.38
2022-08-17T01:07:56.080Z,100980.22
2022-08-17T01:10:59.551Z,100971.34
2022-08-17T01:13:22.024Z,100986.59
2022-08-17T01:16:03.335Z,100976.06
2022-08-17T01:18:33.325Z,100986.75
2022-08-17T01:21:12.001Z,100978.69
2022-08-17T01:23:43.238Z,100974.25
2022-08-17T01:26:12.304Z,100982.34
2022-08-17T01:28:53.851Z,100972.44
2022-08-17T01:31:29.234Z,100971.66
2022-08-17T01:34:04.070Z,100971.66
2022-08-17T01:36:33.512Z,100972.28
2022-08-17T01:39:02.709Z,100965.94
2022-08-17T01:41:31.912Z,100970.63
2022-08-17T01:44:04.614Z,100971.91
2022-08-17T01:46:36.996Z,100970.03
2022-08-17T01:49:13.803Z,100973.13
2022-08-17T01:51:42.851Z,100974.91
2022-08-17T01:54:16.151Z,100975.66
2022-08-17T01:56:48.980Z,100971.56
2022-08-17T01:59:20.104Z,100973.91
2022-08-17T02:01:49.445Z,100963.47
2022-08-17T02:04:18.674Z,100969.47
2022-08-17T02:06:53.257Z,100967.00
2022-08-17T02:09:26.185Z,100970.22
2022-08-17T02:12:37.991Z,100968.81
2022-08-17T02:14:51.767Z,100963.72
2022-08-17T02:17:20.817Z,100973.47
2022-08-17T02:19:49.878Z,100976.66
2022-08-17T02:22:19.174Z,100974.16
2022-08-17T02:25:00.651Z,100979.19
2022-08-17T02:27:30.959Z,100981.06
2022-08-17T02:30:00.119Z,100968.94
2022-08-17T02:32:32.327Z,100967.41
2022-08-17T02:35:02.938Z,100967.53
2022-08-17T02:37:32.319Z,100968.00
2022-08-17T02:40:01.742Z,100960.50
2022-08-17T02:42:36.820Z,100967.72
2022-08-17T02:45:12.236Z,100966.81
2022-08-17T02:47:42.763Z,100975.69
2022-08-17T02:50:14.555Z,100964.00
2022-08-17T02:52:45.733Z,100970.56
2022-08-17T02:55:34.422Z,100968.91
2022-08-17T02:58:04.576Z,100970.88
2022-08-17T03:00:41.971Z,100969.97
2022-08-17T03:03:14.579Z,100973.00
2022-08-17T03:05:43.902Z,100972.28
2022-08-17T03:08:13.726Z,100975.66
2022-08-17T03:10:44.587Z,100973.13
2022-08-17T03:13:15.542Z,100982.47
2022-08-17T03:15:46.453Z,100972.44
2022-08-17T03:18:25.315Z,100968.44
2022-08-17T03:20:57.709Z,100974.94
2022-08-17T03:23:34.843Z,100974.00
2022-08-17T03:26:04.700Z,100981.53
2022-08-17T03:28:49.950Z,100976.19
2022-08-17T03:31:25.198Z,100983.16
2022-08-17T03:33:54.343Z,100985.09
2022-08-17T03:36:24.593Z,100990.50
2022-08-17T03:38:53.786Z,100994.88
2022-08-17T03:41:27.381Z,100992.06
2022-08-17T03:44:08.609Z,100997.38
2022-08-17T03:46:56.096Z,100998.84
2022-08-17T03:49:43.634Z,101006.75
2022-08-17T03:52:31.084Z,101011.31
2022-08-17T03:55:18.523Z,101014.78
2022-08-17T03:57:48.966Z,101017.72
2022-08-17T04:00:19.225Z,101023.72
2022-08-17T04:02:49.953Z,101031.59
2022-08-17T04:05:19.303Z,101030.28
2022-08-17T04:07:48.846Z,101032.28
2022-08-17T04:10:24.705Z,101039.47
2022-08-17T04:12:56.586Z,101045.50
2022-08-17T04:15:27.106Z,101035.94
2022-08-17T04:17:56.857Z,101042.03
2022-08-17T04:20:28.051Z,101044.19
2022-08-17T04:23:04.501Z,101045.91
2022-08-17T04:25:36.168Z,101049.44
2022-08-17T04:28:07.626Z,101042.88
2022-08-17T04:30:46.129Z,101049.94
2022-08-17T04:33:25.037Z,101058.25
2022-08-17T04:36:01.310Z,101060.56
2022-08-17T04:38:34.294Z,101052.34
2022-08-17T04:41:22.438Z,101046.94
2022-08-17T04:43:56.202Z,101062.66
2022-08-17T04:46:36.615Z,101057.31
2022-08-17T04:49:09.202Z,101067.38
2022-08-17T04:51:56.160Z,101062.56
2022-08-17T04:54:25.973Z,101063.72
2022-08-17T04:56:54.952Z,101054.34
2022-08-17T04:59:24.438Z,101068.41
2022-08-17T05:01:53.777Z,101065.78
2022-08-17T05:04:34.634Z,101074.59
2022-08-17T05:07:05.392Z,101079.94
2022-08-17T05:09:34.531Z,101076.66
2022-08-17T05:12:04.159Z,101075.03
2022-08-17T05:14:33.961Z,101080.84
2022-08-17T05:17:04.562Z,101071.59
2022-08-17T05:19:38.631Z,101079.19
2022-08-17T05:22:07.776Z,101080.19
2022-08-17T05:24:38.488Z,101083.13
2022-08-17T05:27:16.784Z,101083.69
2022-08-17T05:29:48.062Z,101078.16
2022-08-17T05:32:37.772Z,101082.13
2022-08-17T05:35:07.154Z,101083.25
2022-08-17T05:37:36.219Z,101086.66
2022-08-17T05:40:06.258Z,101077.16
2022-08-17T05:42:35.345Z,101078.59
2022-08-17T05:45:04.827Z,101079.84
2022-08-17T05:47:33.996Z,101083.66
2022-08-17T05:50:03.842Z,101070.81
2022-08-17T05:52:42.189Z,101075.91
2022-08-17T05:55:47.061Z,101071.53
2022-08-17T05:58:27.192Z,101075.19
2022-08-17T06:01:11.322Z,101073.06
2022-08-17T06:03:51.193Z,101069.44
2022-08-17T06:06:42.659Z,101074.28
2022-08-17T06:09:28.867Z,101070.34
2022-08-17T06:12:22.850Z,101075.19
2022-08-17T06:15:13.724Z,101075.19
2022-08-17T06:17:44.261Z,101067.22
2022-08-17T06:20:16.980Z,101071.13
2022-08-17T06:22:53.371Z,101064.50
2022-08-17T06:25:34.927Z,101075.06
2022-08-17T06:28:09.672Z,101077.28
2022-08-17T06:30:59.863Z,101077.09
2022-08-17T06:33:40.275Z,101074.22
2022-08-17T06:36:14.592Z,101070.81
2022-08-17T06:39:00.875Z,101071.50
2022-08-17T06:41:50.381Z,101076.63
2022-08-17T06:44:43.238Z,101068.41
2022-08-17T06:47:50.608Z,101077.25
2022-08-17T06:50:43.767Z,101072.94
2022-08-17T06:53:30.347Z,101069.38
2022-08-17T06:56:14.544Z,101076.69
2022-08-17T06:58:45.787Z,101073.50
2022-08-17T07:01:31.731Z,101075.09
2022-08-17T07:04:12.404Z,101081.44
2022-08-17T07:06:51.606Z,101077.03
2022-08-17T07:09:29.604Z,101074.06
2022-08-17T07:12:16.987Z,101078.88
2022-08-17T07:15:08.982Z,101084.59
2022-08-17T07:17:47.508Z,101077.03
2022-08-17T07:20:26.203Z,101081.44
2022-08-17T07:23:29.439Z,101089.31
2022-08-17T07:26:07.631Z,101083.91
2022-08-17T07:28:37.711Z,101090.59
2022-08-17T07:31:07.832Z,101087.84
2022-08-17T07:33:37.656Z,101090.59
2022-08-17T07:36:29.578Z,101090.66
2022-08-17T07:38:59.666Z,101093.38
2022-08-17T07:41:53.334Z,101097.09
2022-08-17T07:44:20.062Z,101099.53
2022-08-17T07:47:10.724Z,101093.81
2022-08-17T07:49:43.121Z,101093.75
2022-08-17T07:52:51.099Z,101097.25
2022-08-17T07:55:33.593Z,101091.16
2022-08-17T07:58:02.900Z,101091.88
2022-08-17T08:00:34.406Z,101087.19
2022-08-17T08:03:26.228Z,101083.69
2022-08-17T08:06:03.244Z,101082.59
2022-08-17T08:08:38.626Z,101092.22
2022-08-17T08:11:16.016Z,101088.97
2022-08-17T08:13:46.765Z,101082.44
2022-08-17T08:16:20.730Z,101088.97
2022-08-17T08:18:54.424Z,101078.03
2022-08-17T08:21:59.882Z,101080.63
2022-08-17T08:24:57.429Z,101086.56
2022-08-17T08:27:39.345Z,101085.63
2022-08-17T08:30:15.255Z,101082.88
2022-08-17T08:33:29.657Z,101092.75
2022-08-17T08:36:10.315Z,101084.63
2022-08-17T08:39:23.948Z,101089.84
2022-08-17T08:42:17.717Z,101090.03
2022-08-17T08:45:04.145Z,101092.63
2022-08-17T08:47:35.444Z,101091.75
2022-08-17T08:50:37.829Z,101087.66
2022-08-17T08:53:15.675Z,101098.25
2022-08-17T08:56:03.180Z,101097.66
2022-08-17T08:59:08.511Z,101089.88
2022-08-17T09:01:53.198Z,101090.88
2022-08-17T09:05:10.601Z,101093.31
2022-08-17T09:08:11.912Z,101101.38
2022-08-17T09:10:57.680Z,101100.25
2022-08-17T09:13:44.825Z,101098.94
2022-08-17T09:16:17.336Z,101105.41
2022-08-17T09:19:00.743Z,101103.88
2022-08-17T09:21:48.698Z,101098.03
2022-08-17T09:24:36.835Z,101105.22
2022-08-17T09:27:14.298Z,101104.44
2022-08-17T09:29:49.849Z,101106.97
2022-08-17T09:32:23.300Z,101101.78
2022-08-17T09:35:00.835Z,101093.28
2022-08-17T09:37:55.684Z,101097.38
2022-08-17T09:40:26.838Z,101100.16
2022-08-17T09:43:07.449Z,101100.16
2022-08-17T09:46:24.976Z,101097.78
2022-08-17T09:49:12.653Z,101101.03
2022-08-17T09:51:58.242Z,101098.72
2022-08-17T09:54:48.102Z,101098.81
2022-08-17T09:57:30.416Z,101094.53
2022-08-17T10:00:19.559Z,101098.66
2022-08-17T10:03:30.122Z,101091.75
2022-08-17T10:06:21.959Z,101094.81
2022-08-17T10:08:53.258Z,101083.44
2022-08-17T10:11:59.886Z,101079.97
2022-08-17T10:14:37.054Z,101085.94
2022-08-17T10:17:30.362Z,101095.19
2022-08-17T10:20:18.111Z,101089.66
2022-08-17T10:23:12.500Z,101088.94
2022-08-17T10:26:05.678Z,101081.94
2022-08-17T10:28:45.930Z,101082.44
2022-08-17T10:31:34.600Z,101084.41
2022-08-17T10:34:29.634Z,101085.97
2022-08-17T10:37:21.202Z,101082.03
2022-08-17T10:39:54.852Z,101084.84
2022-08-17T10:42:30.776Z,101088.53
2022-08-17T10:45:18.123Z,101079.78
2022-08-17T10:48:06.735Z,101091.78
2022-08-17T10:50:58.448Z,101091.69
2022-08-17T10:53:33.659Z,101090.09
2022-08-17T10:56:15.253Z,101094.91
2022-08-17T10:58:59.119Z,101091.75
2022-08-17T11:01:34.660Z,101086.94
2022-08-17T11:04:42.211Z,101098.94
2022-08-17T11:07:37.529Z,101090.69
2022-08-17T11:10:19.737Z,101088.78
2022-08-17T11:13:16.132Z,101099.13
2022-08-17T11:15:48.259Z,101093.59
2022-08-17T11:18:47.740Z,101099.94
2022-08-17T11:21:35.694Z,101096.75
2022-08-17T11:24:45.494Z,101092.84
2022-08-17T11:27:35.908Z,101089.41
2022-08-17T11:30:36.782Z,101087.34
2022-08-17T11:33:31.797Z,101091.00
2022-08-17T11:36:16.065Z,101096.97
2022-08-17T11:39:03.089Z,101088.94
2022-08-17T11:41:40.418Z,101091.41
2022-08-17T11:44:27.625Z,101085.00
2022-08-17T11:47:24.304Z,101067.31
2022-08-17T11:50:34.298Z,101074.25
2022-08-17T11:53:03.594Z,101069.94
2022-08-17T11:55:37.212Z,101069.22
2022-08-17T11:58:38.320Z,101063.63
2022-08-17T12:01:33.554Z,101060.91
2022-08-17T12:04:23.569Z,101066.94
2022-08-17T12:07:19.269Z,101054.16
2022-08-17T12:09:51.559Z,101058.94
2022-08-17T12:12:36.740Z,101066.28
2022-08-17T12:15:10.975Z,101065.06
2022-08-17T12:17:43.021Z,101065.28
2022-08-17T12:20:28.993Z,101058.16
2022-08-17T12:23:23.471Z,101066.13
2022-08-17T12:25:57.556Z,101069.00
2022-08-17T12:28:33.909Z,101069.44
2022-08-17T12:31:08.752Z,101063.78
2022-08-17T12:33:43.589Z,101063.06
2022-08-17T12:36:16.643Z,101070.31
2022-08-17T12:39:14.058Z,101064.72
2022-08-17T12:41:47.656Z,101072.06
2022-08-17T12:44:23.057Z,101065.34
2022-08-17T12:47:01.374Z,101069.72
2022-08-17T12:49:32.263Z,101068.00
2022-08-17T12:52:18.675Z,101074.50
2022-08-17T12:55:13.550Z,101074.09
2022-08-17T12:57:52.320Z,101071.81
2022-08-17T13:00:32.469Z,101065.88
2022-08-17T13:03:08.677Z,101065.88
2022-08-17T13:05:42.054Z,101069.47
2022-08-17T13:08:20.706Z,101067.53
2022-08-17T13:11:02.649Z,101079.56
2022-08-17T13:13:34.652Z,101079.88
2022-08-17T13:16:05.860Z,101096.19
2022-08-17T13:18:40.590Z,101095.28
2022-08-17T13:21:31.389Z,101096.47
2022-08-17T13:24:18.470Z,101088.09
2022-08-17T13:26:49.335Z,101084.44
2022-08-17T13:29:29.891Z,101084.78
2022-08-17T13:32:36.944Z,101092.75
2022-08-17T13:35:39.593Z,101091.38
2022-08-17T13:38:35.600Z,101093.69
2022-08-17T13:41:08.312Z,101087.97
2022-08-17T13:43:50.427Z,101092.78
2022-08-17T13:46:27.475Z,101090.41
2022-08-17T13:49:06.547Z,101091.19
2022-08-17T13:51:47.191Z,101094.28
2022-08-17T13:54:36.653Z,101095.06
2022-08-17T13:57:18.411Z,101101.69
2022-08-17T13:59:54.907Z,101097.69
2022-08-17T14:02:28.423Z,101099.75
2022-08-17T14:04:59.273Z,101099.88
2022-08-17T14:07:38.878Z,101097.06
2022-08-17T14:10:16.985Z,101098.25
2022-08-17T14:12:46.747Z,101089.47
2022-08-17T14:15:21.398Z,101087.97
2022-08-17T14:17:51.801Z,101077.06
2022-08-17T14:20:23.575Z,101074.75
2022-08-17T14:22:55.500Z,101076.84
2022-08-17T14:25:28.685Z,101077.69
2022-08-17T14:27:58.160Z,101086.66
2022-08-17T14:30:30.181Z,101099.75
2022-08-17T14:33:00.649Z,101106.06
2022-08-17T14:35:30.454Z,101107.22
2022-08-17T14:38:00.123Z,101110.38
2022-08-17T14:40:30.159Z,101108.50
2022-08-17T14:42:59.632Z,101105.13
2022-08-17T14:45:32.498Z,101104.78
2022-08-17T14:48:05.060Z,101104.22
2022-08-17T14:50:35.935Z,101101.84
2022-08-17T14:53:07.467Z,101094.59
2022-08-17T14:55:40.659Z,101101.03
2022-08-17T14:58:10.618Z,101095.59
2022-08-17T15:00:41.720Z,101093.22
2022-08-17T15:03:12.384Z,101098.81
2022-08-17T15:05:41.954Z,101106.59
2022-08-17T15:08:11.145Z,101108.09
2022-08-17T15:10:40.269Z,101110.41
2022-08-17T15:13:24.658Z,101103.22
2022-08-17T15:15:55.047Z,101101.78
2022-08-17T15:18:24.146Z,101093.75
2022-08-17T15:20:53.570Z,101090.59
2022-08-17T15:23:25.028Z,101098.47
2022-08-17T15:25:55.714Z,101096.59
2022-08-17T15:28:25.257Z,101106.81
2022-08-17T15:30:55.073Z,101105.09
2022-08-17T15:33:32.885Z,101113.78
2022-08-17T15:36:07.282Z,101109.72
2022-08-17T15:38:40.210Z,101111.22
2022-08-17T15:41:15.988Z,101104.28
2022-08-17T15:43:47.083Z,101104.91
2022-08-17T15:46:19.568Z,101105.41
2022-08-17T15:48:51.589Z,101105.66
2022-08-17T15:51:24.886Z,101113.13
2022-08-17T15:53:59.302Z,101111.41
2022-08-17T15:56:34.193Z,101096.81
2022-08-17T15:59:03.549Z,101101.03
2022-08-17T16:02:16.314Z,101085.53
2022-08-17T16:04:29.792Z,101096.19
2022-08-17T16:07:00.723Z,101087.56
2022-08-17T16:09:30.168Z,101091.41
2022-08-17T16:12:08.825Z,101087.50
2022-08-17T16:14:37.913Z,101083.66
2022-08-17T16:17:39.003Z,101087.16
2022-08-17T16:19:57.327Z,101088.13
2022-08-17T16:22:38.476Z,101085.63
2022-08-17T16:25:17.828Z,101087.53
2022-08-17T16:27:49.497Z,101088.13
2022-08-17T16:30:18.669Z,101090.16
2022-08-17T16:32:49.950Z,101084.22
2022-08-17T16:35:21.367Z,101088.97
2022-08-17T16:37:50.608Z,101086.50
2022-08-17T16:40:20.993Z,101085.19
2022-08-17T16:42:51.055Z,101088.31
2022-08-17T16:45:24.323Z,101079.91
2022-08-17T16:47:54.646Z,101076.16
2022-08-17T16:50:25.779Z,101073.19
2022-08-17T16:53:11.413Z,101085.19
2022-08-17T16:55:40.726Z,101086.44
2022-08-17T16:58:10.119Z,101077.56
2022-08-17T17:00:39.892Z,101081.03
2022-08-17T17:03:23.267Z,101074.22
2022-08-17T17:05:58.291Z,101056.91
2022-08-17T17:08:44.071Z,101065.28
2022-08-17T17:11:34.952Z,101059.84
2022-08-17T17:14:16.382Z,101053.81
2022-08-17T17:17:04.619Z,101054.94
2022-08-17T17:19:38.504Z,101055.84
2022-08-17T17:22:27.330Z,101056.19
2022-08-17T17:25:27.916Z,101055.59
2022-08-17T17:28:26.393Z,101059.94
2022-08-17T17:31:07.068Z,101055.81
2022-08-17T17:33:49.898Z,101056.91
2022-08-17T17:36:42.013Z,101057.44
2022-08-17T17:39:18.993Z,101048.03
2022-08-17T17:41:50.345Z,101046.94
2022-08-17T17:44:25.547Z,101038.25
2022-08-17T17:47:02.973Z,101042.28
2022-08-17T17:49:37.257Z,101034.00
2022-08-17T17:52:19.579Z,101040.00
2022-08-17T17:55:05.559Z,101030.97
2022-08-17T17:58:20.533Z,101039.81
2022-08-17T18:01:13.518Z,101032.66
2022-08-17T18:03:58.203Z,101025.09
2022-08-17T18:06:37.614Z,101019.97
2022-08-17T18:09:19.438Z,101020.75
2022-08-17T18:12:32.473Z,101021.72
2022-08-17T18:15:04.781Z,101028.78
2022-08-17T18:17:34.313Z,101021.69
2022-08-17T18:20:05.616Z,101025.28
2022-08-17T18:22:40.246Z,101022.69
2022-08-17T18:25:44.088Z,101018.94
2022-08-17T18:28:26.927Z,101015.50
2022-08-17T18:31:18.563Z,101014.97
2022-08-17T18:33:50.590Z,101009.47
2022-08-17T18:36:35.038Z,101003.22
2022-08-17T18:39:19.948Z,100990.84
2022-08-17T18:41:55.592Z,101001.16
2022-08-17T18:44:38.316Z,100991.94
2022-08-17T18:47:21.289Z,100996.50
2022-08-17T18:50:20.555Z,100986.75
2022-08-17T18:52:49.851Z,100977.72
2022-08-17T18:55:23.192Z,100986.94
2022-08-17T18:57:56.584Z,100974.00
2022-08-17T19:00:31.921Z,100972.91
2022-08-17T19:03:25.811Z,100974.06
2022-08-17T19:05:58.498Z,100961.75
2022-08-17T19:08:30.546Z,100961.09
2022-08-17T19:11:24.932Z,100956.47
2022-08-17T19:13:56.807Z,100957.44
2022-08-17T19:16:35.564Z,100948.34
2022-08-17T19:19:20.880Z,100946.16
2022-08-17T19:21:55.933Z,100950.28
2022-08-17T19:24:27.850Z,100945.00
2022-08-17T19:27:19.065Z,100933.31
2022-08-17T19:30:08.405Z,100927.78
2022-08-17T19:32:38.003Z,100935.47
2022-08-17T19:35:13.708Z,100928.94
2022-08-17T19:38:12.750Z,100923.88
2022-08-17T19:41:12.463Z,100924.66
2022-08-17T19:44:00.136Z,100919.88
2022-08-17T19:46:50.025Z,100913.16
2022-08-17T19:49:33.161Z,100910.28
2022-08-17T19:52:29.246Z,100911.34
2022-08-17T19:55:05.972Z,100907.25
2022-08-17T19:57:54.134Z,100898.50
2022-08-17T20:00:23.388Z,100896.69
2022-08-17T20:03:07.685Z,100898.41
2022-08-17T20:06:08.518Z,100892.66
2022-08-17T20:08:35.590Z,100887.75
2022-08-17T20:11:12.691Z,100883.13
2022-08-17T20:13:46.108Z,100882.13
2022-08-17T20:16:15.303Z,100884.03
2022-08-17T20:19:01.832Z,100874.19
2022-08-17T20:21:54.928Z,100870.81
2022-08-17T20:24:50.050Z,100877.88
2022-08-17T20:27:22.219Z,100867.56
2022-08-17T20:30:14.182Z,100862.09
2022-08-17T20:33:01.397Z,100857.69
2022-08-17T20:35:39.489Z,100860.81
2022-08-17T20:38:34.495Z,100853.53
2022-08-17T20:41:18.968Z,100844.19
2022-08-17T20:43:59.168Z,100847.78
2022-08-17T20:46:53.029Z,100841.50
2022-08-17T20:49:36.818Z,100836.75
2022-08-17T20:52:11.215Z,100840.72
2022-08-17T20:54:56.761Z,100833.66
2022-08-17T20:57:37.929Z,100832.00
2022-08-17T21:00:30.173Z,100829.09
2022-08-17T21:03:49.139Z,100825.47
2022-08-17T21:06:23.420Z,100835.00
2022-08-17T21:09:16.547Z,100834.81
2022-08-17T21:12:05.572Z,100827.88
2022-08-17T21:15:04.221Z,100826.22
2022-08-17T21:17:53.516Z,100822.53
2022-08-17T21:20:40.580Z,100819.78
2022-08-17T21:23:20.423Z,100814.31
2022-08-17T21:26:18.344Z,100808.59
2022-08-17T21:29:00.578Z,100802.44
2022-08-17T21:31:40.965Z,100803.88
2022-08-17T21:34:27.495Z,100799.69
2022-08-17T21:37:16.885Z,100795.50
2022-08-17T21:39:52.218Z,100794.03
2022-08-17T21:42:34.848Z,100790.53
2022-08-17T21:45:22.474Z,100784.03
2022-08-17T21:48:08.054Z,100775.94
2022-08-17T21:50:38.550Z,100769.81
2022-08-17T21:53:09.887Z,100766.25
2022-08-17T21:55:39.385Z,100772.13
2022-08-17T21:58:29.844Z,100760.75
2022-08-17T22:01:21.854Z,100760.44
2022-08-17T22:04:04.956Z,100761.72
2022-08-17T22:06:41.248Z,100759.91
2022-08-17T22:09:13.537Z,100757.63
2022-08-17T22:12:12.271Z,100759.69
2022-08-17T22:14:52.576Z,100747.22
2022-08-17T22:17:37.304Z,100745.13
2022-08-17T22:20:17.736Z,100750.41
2022-08-17T22:23:04.930Z,100743.94
2022-08-17T22:25:37.921Z,100731.16
2022-08-17T22:28:10.017Z,100731.16
2022-08-17T22:30:44.668Z,100729.59
2022-08-17T22:33:38.445Z,100727.88
2022-08-17T22:36:34.661Z,100725.81
2022-08-17T22:39:09.838Z,100725.31
2022-08-17T22:42:01.453Z,100712.59
2022-08-17T22:44:38.633Z,100718.19
2022-08-17T22:47:19.932Z,100713.41
2022-08-17T22:49:53.124Z,100712.56
2022-08-17T22:53:02.255Z,100707.19
2022-08-17T22:55:52.866Z,100710.66
2022-08-17T22:58:43.900Z,100706.19
2022-08-17T23:01:32.537Z,100696.88
2022-08-17T23:04:25.795Z,100692.00
2022-08-17T23:06:55.331Z,100693.34
2022-08-17T23:09:24.679Z,100692.78
2022-08-17T23:11:59.636Z,100692.41
2022-08-17T23:14:32.276Z,100689.66
2022-08-17T23:17:02.869Z,100676.69
2022-08-17T23:19:32.619Z,100679.25
2022-08-17T23:22:05.159Z,100660.66
2022-08-17T23:24:41.834Z,100668.53
2022-08-17T23:27:11.341Z,100675.69
2022-08-17T23:29:42.856Z,100664.88
2022-08-17T23:32:15.894Z,100658.25
2022-08-17T23:34:47.900Z,100655.13
2022-08-17T23:37:19.032Z,100638.38
2022-08-17T23:39:48.418Z,100635.75
2022-08-17T23:42:22.735Z,100646.38
2022-08-17T23:44:51.912Z,100642.63
2022-08-17T23:47:22.331Z,100641.31
2022-08-17T23:49:54.120Z,100638.66
2022-08-17T23:52:25.315Z,100631.75
2022-08-17T23:54:58.407Z,100626.88
2022-08-17T23:57:33.490Z,100625.56
